sensor_id;sensor_type;location;lat;lon;timestamp;temperature;humidity
78704;SHT31;68034;51.966;5.676;2024-01-16T00:01:37;3.4;74.2
78704;SHT31;68034;51.966;5.676;2024-01-16T00:04:05;3.4;74.5
78704;SHT31;68034;51.966;5.676;2024-01-16T00:06:38;3.4;74.6
78704;SHT31;68034;51.966;5.676;2024-01-16T00:09:07;3.4;74.6
78704;SHT31;68034;51.966;5.676;2024-01-16T00:11:39;3.4;74.4
78704;SHT31;68034;51.966;5.676;2024-01-16T00:14:08;3.4;74.3
78704;SHT31;68034;51.966;5.676;2024-01-16T00:16:43;3.4;74.4
78704;SHT31;68034;51.966;5.676;2024-01-16T00:19:12;3.4;74.2
78704;SHT31;68034;51.966;5.676;2024-01-16T00:21:42;3.4;74.1
78704;SHT31;68034;51.966;5.676;2024-01-16T00:24:12;3.4;74.2
78704;SHT31;68034;51.966;5.676;2024-01-16T00:26:41;3.4;74.2
78704;SHT31;68034;51.966;5.676;2024-01-16T00:29:10;3.4;74.1
78704;SHT31;68034;51.966;5.676;2024-01-16T00:31:39;3.4;74.0
78704;SHT31;68034;51.966;5.676;2024-01-16T00:34:08;3.4;73.8
78704;SHT31;68034;51.966;5.676;2024-01-16T00:36:36;3.4;74.4
78704;SHT31;68034;51.966;5.676;2024-01-16T00:39:05;3.5;75.1
78704;SHT31;68034;51.966;5.676;2024-01-16T00:41:38;3.6;74.9
78704;SHT31;68034;51.966;5.676;2024-01-16T00:44:06;3.8;74.4
78704;SHT31;68034;51.966;5.676;2024-01-16T00:46:36;4.0;73.7
78704;SHT31;68034;51.966;5.676;2024-01-16T00:49:05;4.1;72.8
78704;SHT31;68034;51.966;5.676;2024-01-16T00:51:34;4.3;71.9
78704;SHT31;68034;51.966;5.676;2024-01-16T00:54:03;4.4;71.1
78704;SHT31;68034;51.966;5.676;2024-01-16T00:56:32;4.5;69.7
78704;SHT31;68034;51.966;5.676;2024-01-16T00:59:01;4.4;69.4
78704;SHT31;68034;51.966;5.676;2024-01-16T01:01:30;4.3;69.5
78704;SHT31;68034;51.966;5.676;2024-01-16T01:03:58;4.3;69.8
78704;SHT31;68034;51.966;5.676;2024-01-16T01:06:27;4.2;70.2
78704;SHT31;68034;51.966;5.676;2024-01-16T01:08:56;4.1;70.7
78704;SHT31;68034;51.966;5.676;2024-01-16T01:11:25;4.0;70.9
78704;SHT31;68034;51.966;5.676;2024-01-16T01:13:54;3.9;71.4
78704;SHT31;68034;51.966;5.676;2024-01-16T01:16:23;3.8;71.2
78704;SHT31;68034;51.966;5.676;2024-01-16T01:18:51;3.7;71.5
78704;SHT31;68034;51.966;5.676;2024-01-16T01:21:21;3.7;71.8
78704;SHT31;68034;51.966;5.676;2024-01-16T01:23:49;3.6;72.2
78704;SHT31;68034;51.966;5.676;2024-01-16T01:26:18;3.5;72.5
78704;SHT31;68034;51.966;5.676;2024-01-16T01:28:47;3.5;72.7
78704;SHT31;68034;51.966;5.676;2024-01-16T01:31:15;3.5;73.0
78704;SHT31;68034;51.966;5.676;2024-01-16T01:33:46;3.4;73.3
78704;SHT31;68034;51.966;5.676;2024-01-16T01:36:15;3.4;73.4
78704;SHT31;68034;51.966;5.676;2024-01-16T01:38:44;3.4;73.7
78704;SHT31;68034;51.966;5.676;2024-01-16T01:41:12;3.4;73.6
78704;SHT31;68034;51.966;5.676;2024-01-16T01:43:41;3.3;73.7
78704;SHT31;68034;51.966;5.676;2024-01-16T01:46:14;3.3;73.8
78704;SHT31;68034;51.966;5.676;2024-01-16T01:48:46;3.3;73.7
78704;SHT31;68034;51.966;5.676;2024-01-16T01:51:18;3.3;73.8
78704;SHT31;68034;51.966;5.676;2024-01-16T01:53:50;3.3;73.9
78704;SHT31;68034;51.966;5.676;2024-01-16T01:56:20;3.3;74.0
78704;SHT31;68034;51.966;5.676;2024-01-16T01:58:53;3.2;74.0
78704;SHT31;68034;51.966;5.676;2024-01-16T02:01:25;3.2;74.2
78704;SHT31;68034;51.966;5.676;2024-01-16T02:03:55;3.2;74.3
78704;SHT31;68034;51.966;5.676;2024-01-16T02:06:27;3.2;74.5
78704;SHT31;68034;51.966;5.676;2024-01-16T02:08:58;3.2;74.6
78704;SHT31;68034;51.966;5.676;2024-01-16T02:11:26;3.2;74.7
78704;SHT31;68034;51.966;5.676;2024-01-16T02:13:55;3.2;74.9
78704;SHT31;68034;51.966;5.676;2024-01-16T02:16:25;3.2;75.1
78704;SHT31;68034;51.966;5.676;2024-01-16T02:18:53;3.2;75.1
78704;SHT31;68034;51.966;5.676;2024-01-16T02:21:25;3.2;75.1
78704;SHT31;68034;51.966;5.676;2024-01-16T02:23:56;3.2;75.1
78704;SHT31;68034;51.966;5.676;2024-01-16T02:26:27;3.2;75.3
78704;SHT31;68034;51.966;5.676;2024-01-16T02:28:57;3.2;75.4
78704;SHT31;68034;51.966;5.676;2024-01-16T02:31:25;3.2;75.4
78704;SHT31;68034;51.966;5.676;2024-01-16T02:33:54;3.2;75.2
78704;SHT31;68034;51.966;5.676;2024-01-16T02:36:24;3.3;75.4
78704;SHT31;68034;51.966;5.676;2024-01-16T02:38:53;3.3;75.4
78704;SHT31;68034;51.966;5.676;2024-01-16T02:41:22;3.3;75.5
78704;SHT31;68034;51.966;5.676;2024-01-16T02:43:51;3.3;75.8
78704;SHT31;68034;51.966;5.676;2024-01-16T02:46:20;3.3;75.9
78704;SHT31;68034;51.966;5.676;2024-01-16T02:48:49;3.3;75.9
78704;SHT31;68034;51.966;5.676;2024-01-16T02:51:18;3.4;75.7
78704;SHT31;68034;51.966;5.676;2024-01-16T02:53:46;3.4;75.5
78704;SHT31;68034;51.966;5.676;2024-01-16T02:56:15;3.4;75.4
78704;SHT31;68034;51.966;5.676;2024-01-16T02:58:44;3.4;75.2
78704;SHT31;68034;51.966;5.676;2024-01-16T03:01:14;3.4;75.3
78704;SHT31;68034;51.966;5.676;2024-01-16T03:03:42;3.5;75.4
78704;SHT31;68034;51.966;5.676;2024-01-16T03:06:24;3.5;75.6
78704;SHT31;68034;51.966;5.676;2024-01-16T03:08:55;3.5;75.5
78704;SHT31;68034;51.966;5.676;2024-01-16T03:11:23;3.5;75.3
78704;SHT31;68034;51.966;5.676;2024-01-16T03:13:52;3.5;75.1
78704;SHT31;68034;51.966;5.676;2024-01-16T03:16:21;3.6;75.1
78704;SHT31;68034;51.966;5.676;2024-01-16T03:18:50;3.6;74.9
78704;SHT31;68034;51.966;5.676;2024-01-16T03:21:18;3.6;74.7
78704;SHT31;68034;51.966;5.676;2024-01-16T03:23:47;3.6;74.8
78704;SHT31;68034;51.966;5.676;2024-01-16T03:26:16;3.6;74.8
78704;SHT31;68034;51.966;5.676;2024-01-16T03:28:45;3.6;74.7
78704;SHT31;68034;51.966;5.676;2024-01-16T03:31:14;3.6;74.5
78704;SHT31;68034;51.966;5.676;2024-01-16T03:33:46;3.6;74.5
78704;SHT31;68034;51.966;5.676;2024-01-16T03:36:15;3.6;74.5
78704;SHT31;68034;51.966;5.676;2024-01-16T03:38:44;3.6;74.5
78704;SHT31;68034;51.966;5.676;2024-01-16T03:41:13;3.6;74.4
78704;SHT31;68034;51.966;5.676;2024-01-16T03:43:42;3.6;74.5
78704;SHT31;68034;51.966;5.676;2024-01-16T03:46:12;3.5;74.6
78704;SHT31;68034;51.966;5.676;2024-01-16T03:48:43;3.5;74.7
78704;SHT31;68034;51.966;5.676;2024-01-16T03:51:12;3.5;74.9
78704;SHT31;68034;51.966;5.676;2024-01-16T03:53:42;3.5;74.8
78704;SHT31;68034;51.966;5.676;2024-01-16T03:56:11;3.5;74.9
78704;SHT31;68034;51.966;5.676;2024-01-16T03:58:41;3.5;74.9
78704;SHT31;68034;51.966;5.676;2024-01-16T04:01:10;3.5;75.0
78704;SHT31;68034;51.966;5.676;2024-01-16T04:03:39;3.5;75.0
78704;SHT31;68034;51.966;5.676;2024-01-16T04:06:16;3.5;75.2
78704;SHT31;68034;51.966;5.676;2024-01-16T04:08:45;3.4;75.1
78704;SHT31;68034;51.966;5.676;2024-01-16T04:11:15;3.4;74.9
78704;SHT31;68034;51.966;5.676;2024-01-16T04:13:43;3.4;74.9
78704;SHT31;68034;51.966;5.676;2024-01-16T04:16:12;3.4;75.0
78704;SHT31;68034;51.966;5.676;2024-01-16T04:18:42;3.4;75.1
78704;SHT31;68034;51.966;5.676;2024-01-16T04:21:13;3.4;75.2
78704;SHT31;68034;51.966;5.676;2024-01-16T04:23:43;3.4;75.2
78704;SHT31;68034;51.966;5.676;2024-01-16T04:26:12;3.4;75.2
78704;SHT31;68034;51.966;5.676;2024-01-16T04:28:41;3.4;75.3
78704;SHT31;68034;51.966;5.676;2024-01-16T04:31:12;3.4;75.3
78704;SHT31;68034;51.966;5.676;2024-01-16T04:33:43;3.5;75.1
78704;SHT31;68034;51.966;5.676;2024-01-16T04:36:12;3.5;74.9
78704;SHT31;68034;51.966;5.676;2024-01-16T04:38:40;3.5;74.9
78704;SHT31;68034;51.966;5.676;2024-01-16T04:41:11;3.5;74.7
78704;SHT31;68034;51.966;5.676;2024-01-16T04:43:40;3.5;74.5
78704;SHT31;68034;51.966;5.676;2024-01-16T04:46:11;3.4;74.6
78704;SHT31;68034;51.966;5.676;2024-01-16T04:48:40;3.4;74.9
78704;SHT31;68034;51.966;5.676;2024-01-16T04:51:08;3.4;74.8
78704;SHT31;68034;51.966;5.676;2024-01-16T04:53:37;3.4;74.8
78704;SHT31;68034;51.966;5.676;2024-01-16T04:56:07;3.4;74.8
78704;SHT31;68034;51.966;5.676;2024-01-16T04:58:36;3.4;74.8
78704;SHT31;68034;51.966;5.676;2024-01-16T05:01:04;3.4;74.8
78704;SHT31;68034;51.966;5.676;2024-01-16T05:03:33;3.4;74.9
78704;SHT31;68034;51.966;5.676;2024-01-16T05:06:02;3.4;75.0
78704;SHT31;68034;51.966;5.676;2024-01-16T05:08:30;3.4;75.2
78704;SHT31;68034;51.966;5.676;2024-01-16T05:10:59;3.4;75.3
78704;SHT31;68034;51.966;5.676;2024-01-16T05:13:30;3.3;75.2
78704;SHT31;68034;51.966;5.676;2024-01-16T05:15:59;3.3;75.2
78704;SHT31;68034;51.966;5.676;2024-01-16T05:18:28;3.3;75.0
78704;SHT31;68034;51.966;5.676;2024-01-16T05:20:57;3.3;74.9
78704;SHT31;68034;51.966;5.676;2024-01-16T05:23:25;3.3;75.0
78704;SHT31;68034;51.966;5.676;2024-01-16T05:25:56;3.3;75.1
78704;SHT31;68034;51.966;5.676;2024-01-16T05:28:25;3.2;75.4
78704;SHT31;68034;51.966;5.676;2024-01-16T05:30:55;3.2;75.4
78704;SHT31;68034;51.966;5.676;2024-01-16T05:33:24;3.2;75.6
78704;SHT31;68034;51.966;5.676;2024-01-16T05:35:53;3.2;75.7
78704;SHT31;68034;51.966;5.676;2024-01-16T05:38:22;3.2;75.5
78704;SHT31;68034;51.966;5.676;2024-01-16T05:40:50;3.2;75.3
78704;SHT31;68034;51.966;5.676;2024-01-16T05:43:20;3.2;75.1
78704;SHT31;68034;51.966;5.676;2024-01-16T05:45:48;3.2;75.2
78704;SHT31;68034;51.966;5.676;2024-01-16T05:48:18;3.2;75.4
78704;SHT31;68034;51.966;5.676;2024-01-16T05:50:49;3.2;75.5
78704;SHT31;68034;51.966;5.676;2024-01-16T05:53:17;3.3;75.5
78704;SHT31;68034;51.966;5.676;2024-01-16T05:55:46;3.3;75.7
78704;SHT31;68034;51.966;5.676;2024-01-16T05:58:15;3.3;75.7
78704;SHT31;68034;51.966;5.676;2024-01-16T06:00:43;3.3;75.7
78704;SHT31;68034;51.966;5.676;2024-01-16T06:03:12;3.3;75.7
78704;SHT31;68034;51.966;5.676;2024-01-16T06:05:41;3.3;75.7
78704;SHT31;68034;51.966;5.676;2024-01-16T06:08:10;3.3;75.7
78704;SHT31;68034;51.966;5.676;2024-01-16T06:10:39;3.3;75.5
78704;SHT31;68034;51.966;5.676;2024-01-16T06:13:07;3.3;75.5
78704;SHT31;68034;51.966;5.676;2024-01-16T06:15:36;3.3;75.7
78704;SHT31;68034;51.966;5.676;2024-01-16T06:18:05;3.3;75.6
78704;SHT31;68034;51.966;5.676;2024-01-16T06:20:35;3.3;75.6
78704;SHT31;68034;51.966;5.676;2024-01-16T06:23:06;3.3;75.7
78704;SHT31;68034;51.966;5.676;2024-01-16T06:25:39;3.4;76.4
78704;SHT31;68034;51.966;5.676;2024-01-16T06:28:08;3.5;75.6
78704;SHT31;68034;51.966;5.676;2024-01-16T06:30:37;3.6;75.2
78704;SHT31;68034;51.966;5.676;2024-01-16T06:33:14;3.6;75.1
78704;SHT31;68034;51.966;5.676;2024-01-16T06:35:44;3.7;75.5
78704;SHT31;68034;51.966;5.676;2024-01-16T06:38:16;3.9;75.1
78704;SHT31;68034;51.966;5.676;2024-01-16T06:40:50;4.0;74.5
78704;SHT31;68034;51.966;5.676;2024-01-16T06:43:19;4.2;73.9
78704;SHT31;68034;51.966;5.676;2024-01-16T06:45:50;4.3;73.1
78704;SHT31;68034;51.966;5.676;2024-01-16T06:48:24;4.5;72.6
78704;SHT31;68034;51.966;5.676;2024-01-16T06:50:55;4.6;72.3
78704;SHT31;68034;51.966;5.676;2024-01-16T06:53:28;4.7;71.6
78704;SHT31;68034;51.966;5.676;2024-01-16T06:55:57;4.7;70.8
78704;SHT31;68034;51.966;5.676;2024-01-16T06:58:26;4.7;70.8
78704;SHT31;68034;51.966;5.676;2024-01-16T07:00:54;4.7;70.9
78704;SHT31;68034;51.966;5.676;2024-01-16T07:03:24;4.7;70.9
78704;SHT31;68034;51.966;5.676;2024-01-16T07:05:53;4.7;70.6
78704;SHT31;68034;51.966;5.676;2024-01-16T07:08:22;4.7;70.6
78704;SHT31;68034;51.966;5.676;2024-01-16T07:10:50;4.6;70.6
78704;SHT31;68034;51.966;5.676;2024-01-16T07:13:20;4.6;70.7
78704;SHT31;68034;51.966;5.676;2024-01-16T07:15:48;4.5;70.5
78704;SHT31;68034;51.966;5.676;2024-01-16T07:18:19;4.4;70.5
78704;SHT31;68034;51.966;5.676;2024-01-16T07:20:48;4.3;70.8
78704;SHT31;68034;51.966;5.676;2024-01-16T07:23:17;4.3;71.1
78704;SHT31;68034;51.966;5.676;2024-01-16T07:25:45;4.2;71.4
78704;SHT31;68034;51.966;5.676;2024-01-16T07:28:14;4.1;71.9
78704;SHT31;68034;51.966;5.676;2024-01-16T07:30:43;4.1;72.2
78704;SHT31;68034;51.966;5.676;2024-01-16T07:33:11;4.0;72.4
78704;SHT31;68034;51.966;5.676;2024-01-16T07:35:40;4.0;72.5
78704;SHT31;68034;51.966;5.676;2024-01-16T07:38:14;4.0;72.8
78704;SHT31;68034;51.966;5.676;2024-01-16T07:40:43;4.0;72.8
78704;SHT31;68034;51.966;5.676;2024-01-16T07:43:11;3.9;72.8
78704;SHT31;68034;51.966;5.676;2024-01-16T07:45:40;3.9;72.8
78704;SHT31;68034;51.966;5.676;2024-01-16T07:48:08;3.9;72.8
78704;SHT31;68034;51.966;5.676;2024-01-16T07:50:37;3.9;72.7
78704;SHT31;68034;51.966;5.676;2024-01-16T07:53:07;3.8;72.7
78704;SHT31;68034;51.966;5.676;2024-01-16T07:55:36;3.8;72.9
78704;SHT31;68034;51.966;5.676;2024-01-16T07:58:05;3.8;72.9
78704;SHT31;68034;51.966;5.676;2024-01-16T08:00:34;3.8;73.0
78704;SHT31;68034;51.966;5.676;2024-01-16T08:03:03;3.8;72.9
78704;SHT31;68034;51.966;5.676;2024-01-16T08:05:31;3.8;72.8
78704;SHT31;68034;51.966;5.676;2024-01-16T08:08:00;3.8;72.6
78704;SHT31;68034;51.966;5.676;2024-01-16T08:10:29;3.8;73.0
78704;SHT31;68034;51.966;5.676;2024-01-16T08:12:58;3.8;73.2
78704;SHT31;68034;51.966;5.676;2024-01-16T08:15:26;3.8;72.4
78704;SHT31;68034;51.966;5.676;2024-01-16T08:17:55;3.8;72.2
78704;SHT31;68034;51.966;5.676;2024-01-16T08:20:24;3.8;72.1
78704;SHT31;68034;51.966;5.676;2024-01-16T08:22:53;3.7;72.2
78704;SHT31;68034;51.966;5.676;2024-01-16T08:25:22;3.7;72.3
78704;SHT31;68034;51.966;5.676;2024-01-16T08:27:50;3.7;72.3
78704;SHT31;68034;51.966;5.676;2024-01-16T08:30:19;3.7;72.2
78704;SHT31;68034;51.966;5.676;2024-01-16T08:32:48;3.7;72.0
78704;SHT31;68034;51.966;5.676;2024-01-16T08:35:16;3.7;72.1
78704;SHT31;68034;51.966;5.676;2024-01-16T08:37:45;3.7;72.1
78704;SHT31;68034;51.966;5.676;2024-01-16T08:40:14;3.7;72.2
78704;SHT31;68034;51.966;5.676;2024-01-16T08:42:42;3.7;72.1
78704;SHT31;68034;51.966;5.676;2024-01-16T08:45:11;3.7;71.9
78704;SHT31;68034;51.966;5.676;2024-01-16T08:47:40;3.7;72.3
78704;SHT31;68034;51.966;5.676;2024-01-16T08:50:09;3.7;72.3
78704;SHT31;68034;51.966;5.676;2024-01-16T08:52:38;3.7;72.5
78704;SHT31;68034;51.966;5.676;2024-01-16T08:55:09;3.7;72.3
78704;SHT31;68034;51.966;5.676;2024-01-16T08:57:38;3.7;71.9
78704;SHT31;68034;51.966;5.676;2024-01-16T09:00:07;3.7;72.0
78704;SHT31;68034;51.966;5.676;2024-01-16T09:02:37;3.7;71.6
78704;SHT31;68034;51.966;5.676;2024-01-16T09:05:06;3.7;71.8
78704;SHT31;68034;51.966;5.676;2024-01-16T09:07:35;3.7;71.8
78704;SHT31;68034;51.966;5.676;2024-01-16T09:10:04;3.7;71.4
78704;SHT31;68034;51.966;5.676;2024-01-16T09:12:33;3.7;71.6
78704;SHT31;68034;51.966;5.676;2024-01-16T09:15:02;3.7;71.5
78704;SHT31;68034;51.966;5.676;2024-01-16T09:17:31;3.7;70.8
78704;SHT31;68034;51.966;5.676;2024-01-16T09:20:00;3.7;70.6
78704;SHT31;68034;51.966;5.676;2024-01-16T09:22:29;3.7;70.8
78704;SHT31;68034;51.966;5.676;2024-01-16T09:24:58;3.7;70.8
78704;SHT31;68034;51.966;5.676;2024-01-16T09:27:27;3.7;70.7
78704;SHT31;68034;51.966;5.676;2024-01-16T09:29:56;3.7;70.6
78704;SHT31;68034;51.966;5.676;2024-01-16T09:32:25;3.7;70.4
78704;SHT31;68034;51.966;5.676;2024-01-16T09:34:54;3.7;70.4
78704;SHT31;68034;51.966;5.676;2024-01-16T09:37:24;3.7;70.6
78704;SHT31;68034;51.966;5.676;2024-01-16T09:39:53;3.7;70.1
78704;SHT31;68034;51.966;5.676;2024-01-16T09:42:25;3.6;70.1
78704;SHT31;68034;51.966;5.676;2024-01-16T09:44:55;3.6;71.0
78704;SHT31;68034;51.966;5.676;2024-01-16T09:47:25;3.6;70.5
78704;SHT31;68034;51.966;5.676;2024-01-16T09:49:57;3.6;70.9
78704;SHT31;68034;51.966;5.676;2024-01-16T09:52:29;3.6;70.5
78704;SHT31;68034;51.966;5.676;2024-01-16T09:55:01;3.6;70.6
78704;SHT31;68034;51.966;5.676;2024-01-16T09:57:31;3.6;71.0
78704;SHT31;68034;51.966;5.676;2024-01-16T10:00:01;3.6;70.1
78704;SHT31;68034;51.966;5.676;2024-01-16T10:02:32;3.7;70.6
78704;SHT31;68034;51.966;5.676;2024-01-16T10:05:01;3.7;70.5
78704;SHT31;68034;51.966;5.676;2024-01-16T10:07:30;3.7;70.5
78704;SHT31;68034;51.966;5.676;2024-01-16T10:10:00;3.7;70.4
78704;SHT31;68034;51.966;5.676;2024-01-16T10:12:29;3.7;70.2
78704;SHT31;68034;51.966;5.676;2024-01-16T10:14:59;3.7;70.0
78704;SHT31;68034;51.966;5.676;2024-01-16T10:17:38;3.7;70.0
78704;SHT31;68034;51.966;5.676;2024-01-16T10:20:09;3.7;70.0
78704;SHT31;68034;51.966;5.676;2024-01-16T10:22:40;3.7;70.1
78704;SHT31;68034;51.966;5.676;2024-01-16T10:25:12;3.7;69.6
78704;SHT31;68034;51.966;5.676;2024-01-16T10:27:43;3.7;69.7
78704;SHT31;68034;51.966;5.676;2024-01-16T10:30:12;3.7;69.9
78704;SHT31;68034;51.966;5.676;2024-01-16T10:32:42;3.8;69.2
78704;SHT31;68034;51.966;5.676;2024-01-16T10:35:12;3.7;69.4
78704;SHT31;68034;51.966;5.676;2024-01-16T10:37:43;3.8;69.2
78704;SHT31;68034;51.966;5.676;2024-01-16T10:40:15;3.8;69.5
78704;SHT31;68034;51.966;5.676;2024-01-16T10:42:45;3.8;68.9
78704;SHT31;68034;51.966;5.676;2024-01-16T10:45:18;3.8;69.0
78704;SHT31;68034;51.966;5.676;2024-01-16T10:47:49;3.8;69.0
78704;SHT31;68034;51.966;5.676;2024-01-16T10:50:23;3.8;69.2
78704;SHT31;68034;51.966;5.676;2024-01-16T10:52:56;3.8;69.4
78704;SHT31;68034;51.966;5.676;2024-01-16T10:55:28;3.9;69.9
78704;SHT31;68034;51.966;5.676;2024-01-16T10:57:58;3.9;69.0
78704;SHT31;68034;51.966;5.676;2024-01-16T11:00:40;4.0;69.2
78704;SHT31;68034;51.966;5.676;2024-01-16T11:03:18;4.0;69.1
78704;SHT31;68034;51.966;5.676;2024-01-16T11:05:47;4.0;69.6
78704;SHT31;68034;51.966;5.676;2024-01-16T11:08:17;4.1;68.7
78704;SHT31;68034;51.966;5.676;2024-01-16T11:10:50;4.1;69.1
78704;SHT31;68034;51.966;5.676;2024-01-16T11:13:20;4.1;69.2
78704;SHT31;68034;51.966;5.676;2024-01-16T11:15:50;4.2;70.0
78704;SHT31;68034;51.966;5.676;2024-01-16T11:18:20;4.2;69.2
78704;SHT31;68034;51.966;5.676;2024-01-16T11:20:50;4.3;69.4
78704;SHT31;68034;51.966;5.676;2024-01-16T11:23:21;4.4;69.5
78704;SHT31;68034;51.966;5.676;2024-01-16T11:25:50;4.5;69.6
78704;SHT31;68034;51.966;5.676;2024-01-16T11:28:19;4.6;68.8
78704;SHT31;68034;51.966;5.676;2024-01-16T11:30:48;4.8;69.0
78704;SHT31;68034;51.966;5.676;2024-01-16T11:33:44;5.1;67.8
78704;SHT31;68034;51.966;5.676;2024-01-16T11:36:47;5.4;67.3
78704;SHT31;68034;51.966;5.676;2024-01-16T11:39:27;5.7;66.1
78704;SHT31;68034;51.966;5.676;2024-01-16T11:42:07;5.9;65.3
78704;SHT31;68034;51.966;5.676;2024-01-16T11:44:48;6.1;64.9
78704;SHT31;68034;51.966;5.676;2024-01-16T11:47:25;6.2;64.1
78704;SHT31;68034;51.966;5.676;2024-01-16T11:50:27;6.3;63.3
78704;SHT31;68034;51.966;5.676;2024-01-16T11:52:48;6.4;63.1
78704;SHT31;68034;51.966;5.676;2024-01-16T11:55:31;6.5;62.0
78704;SHT31;68034;51.966;5.676;2024-01-16T11:58:25;6.6;62.1
78704;SHT31;68034;51.966;5.676;2024-01-16T12:00:58;6.6;61.3
78704;SHT31;68034;51.966;5.676;2024-01-16T12:03:27;6.6;61.5
78704;SHT31;68034;51.966;5.676;2024-01-16T12:05:57;6.5;60.7
78704;SHT31;68034;51.966;5.676;2024-01-16T12:08:27;6.4;61.7
78704;SHT31;68034;51.966;5.676;2024-01-16T12:10:56;6.3;62.3
78704;SHT31;68034;51.966;5.676;2024-01-16T12:13:26;6.2;61.9
78704;SHT31;68034;51.966;5.676;2024-01-16T12:16:02;6.2;62.3
78704;SHT31;68034;51.966;5.676;2024-01-16T12:18:32;6.2;62.0
78704;SHT31;68034;51.966;5.676;2024-01-16T12:21:10;6.2;61.6
78704;SHT31;68034;51.966;5.676;2024-01-16T12:23:40;6.3;61.7
78704;SHT31;68034;51.966;5.676;2024-01-16T12:26:21;6.3;62.5
78704;SHT31;68034;51.966;5.676;2024-01-16T12:28:52;6.4;61.5
78704;SHT31;68034;51.966;5.676;2024-01-16T12:31:22;6.4;61.5
78704;SHT31;68034;51.966;5.676;2024-01-16T12:33:51;6.5;60.7
78704;SHT31;68034;51.966;5.676;2024-01-16T12:36:20;6.6;60.5
78704;SHT31;68034;51.966;5.676;2024-01-16T12:38:56;6.6;60.7
78704;SHT31;68034;51.966;5.676;2024-01-16T12:41:30;6.6;60.4
78704;SHT31;68034;51.966;5.676;2024-01-16T12:44:01;6.6;60.2
78704;SHT31;68034;51.966;5.676;2024-01-16T12:46:30;6.6;60.2
78704;SHT31;68034;51.966;5.676;2024-01-16T12:49:03;6.7;60.5
78704;SHT31;68034;51.966;5.676;2024-01-16T12:51:35;6.6;61.4
78704;SHT31;68034;51.966;5.676;2024-01-16T12:54:15;6.6;60.4
78704;SHT31;68034;51.966;5.676;2024-01-16T12:56:45;6.6;60.1
78704;SHT31;68034;51.966;5.676;2024-01-16T12:59:14;6.6;61.4
78704;SHT31;68034;51.966;5.676;2024-01-16T13:01:45;6.7;62.2
78704;SHT31;68034;51.966;5.676;2024-01-16T13:04:16;6.7;61.2
78704;SHT31;68034;51.966;5.676;2024-01-16T13:06:45;6.8;60.2
78704;SHT31;68034;51.966;5.676;2024-01-16T13:09:14;7.0;59.5
78704;SHT31;68034;51.966;5.676;2024-01-16T13:11:49;7.1;58.8
78704;SHT31;68034;51.966;5.676;2024-01-16T13:14:20;7.1;58.8
78704;SHT31;68034;51.966;5.676;2024-01-16T13:16:49;7.2;58.6
78704;SHT31;68034;51.966;5.676;2024-01-16T13:19:19;7.3;59.7
78704;SHT31;68034;51.966;5.676;2024-01-16T13:21:49;7.4;58.9
78704;SHT31;68034;51.966;5.676;2024-01-16T13:24:18;7.5;57.7
78704;SHT31;68034;51.966;5.676;2024-01-16T13:26:49;7.6;57.5
78704;SHT31;68034;51.966;5.676;2024-01-16T13:29:18;7.6;57.0
78704;SHT31;68034;51.966;5.676;2024-01-16T13:31:48;7.6;57.5
78704;SHT31;68034;51.966;5.676;2024-01-16T13:34:21;7.6;56.6
78704;SHT31;68034;51.966;5.676;2024-01-16T13:36:51;7.6;55.9
78704;SHT31;68034;51.966;5.676;2024-01-16T13:39:20;7.6;55.1
78704;SHT31;68034;51.966;5.676;2024-01-16T13:41:51;7.7;56.0
78704;SHT31;68034;51.966;5.676;2024-01-16T13:44:20;7.7;56.5
78704;SHT31;68034;51.966;5.676;2024-01-16T13:46:49;7.8;56.1
78704;SHT31;68034;51.966;5.676;2024-01-16T13:49:19;8.0;55.9
78704;SHT31;68034;51.966;5.676;2024-01-16T13:51:47;8.3;54.7
78704;SHT31;68034;51.966;5.676;2024-01-16T13:54:17;8.4;53.1
78704;SHT31;68034;51.966;5.676;2024-01-16T13:56:46;8.5;53.7
78704;SHT31;68034;51.966;5.676;2024-01-16T13:59:15;8.5;53.7
78704;SHT31;68034;51.966;5.676;2024-01-16T14:01:44;8.4;54.5
78704;SHT31;68034;51.966;5.676;2024-01-16T14:04:13;8.5;53.9
78704;SHT31;68034;51.966;5.676;2024-01-16T14:06:42;8.5;53.3
78704;SHT31;68034;51.966;5.676;2024-01-16T14:09:11;8.6;53.6
78704;SHT31;68034;51.966;5.676;2024-01-16T14:11:40;8.6;54.2
78704;SHT31;68034;51.966;5.676;2024-01-16T14:14:09;8.6;53.0
78704;SHT31;68034;51.966;5.676;2024-01-16T14:16:40;8.7;52.7
78704;SHT31;68034;51.966;5.676;2024-01-16T14:19:08;8.7;52.5
78704;SHT31;68034;51.966;5.676;2024-01-16T14:21:37;8.7;52.1
78704;SHT31;68034;51.966;5.676;2024-01-16T14:24:06;8.7;51.7
78704;SHT31;68034;51.966;5.676;2024-01-16T14:26:37;8.7;51.5
78704;SHT31;68034;51.966;5.676;2024-01-16T14:29:05;8.7;50.7
78704;SHT31;68034;51.966;5.676;2024-01-16T14:31:35;8.6;51.1
78704;SHT31;68034;51.966;5.676;2024-01-16T14:34:06;8.4;51.4
78704;SHT31;68034;51.966;5.676;2024-01-16T14:36:35;8.2;52.1
78704;SHT31;68034;51.966;5.676;2024-01-16T14:39:04;8.1;53.0
78704;SHT31;68034;51.966;5.676;2024-01-16T14:41:36;7.9;53.5
78704;SHT31;68034;51.966;5.676;2024-01-16T14:44:06;7.7;54.6
78704;SHT31;68034;51.966;5.676;2024-01-16T14:46:36;7.6;54.4
78704;SHT31;68034;51.966;5.676;2024-01-16T14:49:04;7.5;53.9
78704;SHT31;68034;51.966;5.676;2024-01-16T14:51:34;7.4;55.1
78704;SHT31;68034;51.966;5.676;2024-01-16T14:54:06;7.3;55.5
78704;SHT31;68034;51.966;5.676;2024-01-16T14:56:35;7.2;56.1
78704;SHT31;68034;51.966;5.676;2024-01-16T14:59:05;7.1;56.6
78704;SHT31;68034;51.966;5.676;2024-01-16T15:01:35;7.1;57.2
78704;SHT31;68034;51.966;5.676;2024-01-16T15:04:04;7.0;56.2
78704;SHT31;68034;51.966;5.676;2024-01-16T15:06:34;7.0;56.5
78704;SHT31;68034;51.966;5.676;2024-01-16T15:09:03;6.9;56.5
78704;SHT31;68034;51.966;5.676;2024-01-16T15:11:32;6.9;56.1
78704;SHT31;68034;51.966;5.676;2024-01-16T15:14:01;6.9;56.1
78704;SHT31;68034;51.966;5.676;2024-01-16T15:16:30;6.8;56.6
78704;SHT31;68034;51.966;5.676;2024-01-16T15:18:59;6.8;56.4
78704;SHT31;68034;51.966;5.676;2024-01-16T15:21:28;6.7;57.0
78704;SHT31;68034;51.966;5.676;2024-01-16T15:23:59;6.6;56.7
78704;SHT31;68034;51.966;5.676;2024-01-16T15:26:28;6.6;57.1
78704;SHT31;68034;51.966;5.676;2024-01-16T15:28:57;6.5;57.3
78704;SHT31;68034;51.966;5.676;2024-01-16T15:31:26;6.5;57.4
78704;SHT31;68034;51.966;5.676;2024-01-16T15:33:57;6.4;57.8
78704;SHT31;68034;51.966;5.676;2024-01-16T15:36:26;6.4;57.7
78704;SHT31;68034;51.966;5.676;2024-01-16T15:38:55;6.3;57.5
78704;SHT31;68034;51.966;5.676;2024-01-16T15:41:23;6.3;58.0
78704;SHT31;68034;51.966;5.676;2024-01-16T15:43:52;6.3;57.7
78704;SHT31;68034;51.966;5.676;2024-01-16T15:46:21;6.2;57.7
78704;SHT31;68034;51.966;5.676;2024-01-16T15:48:50;6.2;58.3
78704;SHT31;68034;51.966;5.676;2024-01-16T15:51:33;6.2;58.3
78704;SHT31;68034;51.966;5.676;2024-01-16T15:54:05;6.2;58.1
78704;SHT31;68034;51.966;5.676;2024-01-16T15:56:34;6.3;58.2
78704;SHT31;68034;51.966;5.676;2024-01-16T15:59:04;6.4;58.3
78704;SHT31;68034;51.966;5.676;2024-01-16T16:01:33;6.4;57.8
78704;SHT31;68034;51.966;5.676;2024-01-16T16:04:02;6.4;57.7
78704;SHT31;68034;51.966;5.676;2024-01-16T16:06:33;6.3;57.5
78704;SHT31;68034;51.966;5.676;2024-01-16T16:09:02;6.3;57.2
78704;SHT31;68034;51.966;5.676;2024-01-16T16:11:33;6.3;57.7
78704;SHT31;68034;51.966;5.676;2024-01-16T16:14:02;6.2;58.0
78704;SHT31;68034;51.966;5.676;2024-01-16T16:16:32;6.2;58.2
78704;SHT31;68034;51.966;5.676;2024-01-16T16:19:01;6.1;58.7
78704;SHT31;68034;51.966;5.676;2024-01-16T16:21:31;6.1;58.7
78704;SHT31;68034;51.966;5.676;2024-01-16T16:24:01;6.0;59.1
78704;SHT31;68034;51.966;5.676;2024-01-16T16:26:34;6.0;58.9
78704;SHT31;68034;51.966;5.676;2024-01-16T16:29:04;6.0;59.7
78704;SHT31;68034;51.966;5.676;2024-01-16T16:31:38;5.9;59.1
78704;SHT31;68034;51.966;5.676;2024-01-16T16:34:08;5.9;59.9
78704;SHT31;68034;51.966;5.676;2024-01-16T16:36:39;5.9;59.3